Time;durP1;ratioP1;P1;durP2;ratioP2;P2;SDS_P1;SDS_P2;PMS_P1;PMS_P2;Temp;Humidity;BMP_temperature;BMP_pressure;BME280_temperature;BME280_humidity;BME280_pressure;Samples;Min_cycle;Max_cycle;Signal;HPM_P1;HPM_P2
2022/06/01 00:01:04;;;;;;;1.70;1.60;;;;;;;15.03;91.75;96537.06;5056715;28;20225;-54
2022/06/01 00:03:34;;;;;;;2.10;1.80;;;;;;;15.07;91.65;96527.72;5059225;28;20216;-54
2022/06/01 00:06:03;;;;;;;1.53;1.43;;;;;;;15.06;91.22;96534.88;5056401;28;20210;-54
2022/06/01 00:08:32;;;;;;;1.70;1.60;;;;;;;15.04;91.28;96536.06;5055446;28;20240;-53
2022/06/01 00:11:00;;;;;;;1.77;1.67;;;;;;;15.03;91.00;96534.38;5057380;28;20242;-52
2022/06/01 00:13:27;;;;;;;1.83;1.70;;;;;;;14.94;91.59;96526.44;5056184;28;20527;-53
2022/06/01 00:15:54;;;;;;;1.53;1.53;;;;;;;14.94;91.54;96528.28;5054618;28;20627;-54
2022/06/01 00:18:22;;;;;;;1.80;1.70;;;;;;;14.89;91.60;96525.28;5055672;28;20222;-53
2022/06/01 00:20:51;;;;;;;1.37;1.37;;;;;;;14.86;91.44;96529.13;5055535;28;20211;-54
2022/06/01 00:23:18;;;;;;;1.63;1.63;;;;;;;14.85;91.48;96534.63;5054674;28;20230;-54
2022/06/01 00:25:45;;;;;;;2.00;1.83;;;;;;;14.81;91.66;96536.81;5056163;28;20203;-54
2022/06/01 00:28:12;;;;;;;1.93;1.83;;;;;;;14.75;92.00;96532.16;5055951;28;20222;-53
2022/06/01 00:30:38;;;;;;;1.47;1.40;;;;;;;14.75;91.67;96532.16;5058895;28;20246;-53
2022/06/01 00:33:05;;;;;;;2.10;2.00;;;;;;;14.68;92.54;96535.69;5063213;28;20203;-53
2022/06/01 00:35:32;;;;;;;2.20;2.03;;;;;;;14.65;92.60;96534.19;5060864;28;20203;-54
2022/06/01 00:38:00;;;;;;;1.97;1.83;;;;;;;14.60;92.60;96531.22;5061204;28;20211;-53
2022/06/01 00:40:29;;;;;;;2.07;1.73;;;;;;;14.52;92.89;96536.56;5060809;28;20660;-54
2022/06/01 00:42:58;;;;;;;1.70;1.60;;;;;;;14.40;93.86;96535.25;5061267;28;20214;-55
2022/06/01 00:45:27;;;;;;;1.60;1.50;;;;;;;14.30;94.07;96537.25;5060410;28;20218;-54
2022/06/01 00:47:54;;;;;;;2.30;1.70;;;;;;;14.23;94.47;96536.25;5060433;28;20203;-54
2022/06/01 00:50:23;;;;;;;1.97;1.57;;;;;;;14.16;95.24;96535.25;5059431;28;20206;-54
2022/06/01 00:52:53;;;;;;;2.10;1.90;;;;;;;14.06;96.09;96534.59;5059423;28;20219;-53
2022/06/01 00:55:27;;;;;;;3.00;1.70;;;;;;;14.01;96.17;96537.75;5056694;28;20211;-54
2022/06/01 00:57:58;;;;;;;1.93;1.83;;;;;;;13.88;96.46;96532.94;5065918;28;20199;-54
2022/06/01 01:00:28;;;;;;;2.23;1.77;;;;;;;13.80;97.36;96535.59;5076513;28;20670;-53
2022/06/01 01:02:56;;;;;;;2.03;1.90;;;;;;;13.64;97.64;96527.59;5076417;28;20197;-54
2022/06/01 01:05:27;;;;;;;1.60;1.60;;;;;;;13.51;98.65;96527.25;5077955;28;20194;-54
2022/06/01 01:07:56;;;;;;;1.80;1.50;;;;;;;13.48;97.84;96524.09;5073330;28;20313;-53
2022/06/01 01:10:25;;;;;;;2.20;1.87;;;;;;;13.35;98.93;96519.28;5064963;28;20212;-55
2022/06/01 01:12:58;;;;;;;2.00;1.80;;;;;;;13.29;99.60;96514.59;5070877;28;20284;-54
2022/06/01 01:15:30;;;;;;;1.60;1.50;;;;;;;13.26;99.50;96515.75;5074513;28;20238;-54
2022/06/01 01:17:57;;;;;;;2.47;1.90;;;;;;;13.24;100.00;96516.94;5074505;28;20187;-53
2022/06/01 01:20:25;;;;;;;1.70;1.60;;;;;;;13.29;99.44;96515.44;5074703;28;20218;-55
2022/06/01 01:22:59;;;;;;;2.03;1.70;;;;;;;13.24;99.59;96516.94;5073366;28;20218;-56
2022/06/01 01:25:29;;;;;;;1.80;1.70;;;;;;;13.21;100.00;96518.09;5070862;28;20229;-54
2022/06/01 01:27:59;;;;;;;1.73;1.63;;;;;;;13.21;100.00;96523.41;5074649;28;20214;-55
2022/06/01 01:30:40;;;;;;;1.63;1.63;;;;;;;13.28;100.00;96512.94;5071459;28;20223;-54
2022/06/01 01:33:09;;;;;;;1.70;1.60;;;;;;;13.25;100.00;96515.94;5052633;28;20195;-54
2022/06/01 01:35:36;;;;;;;1.60;1.50;;;;;;;13.23;100.00;96521.41;5069177;28;20215;-54
2022/06/01 01:38:07;;;;;;;2.13;2.03;;;;;;;13.22;100.00;96519.72;5070126;28;20203;-54
2022/06/01 01:40:38;;;;;;;1.70;1.60;;;;;;;13.22;100.00;96516.25;5056446;28;20222;-54
2022/06/01 01:43:06;;;;;;;2.20;1.97;;;;;;;13.23;100.00;96523.22;5054509;28;20218;-53
2022/06/01 01:45:36;;;;;;;1.87;1.77;;;;;;;13.17;100.00;96521.22;5054469;28;21059;-53
2022/06/01 01:48:06;;;;;;;1.80;1.67;;;;;;;13.18;100.00;96517.59;5054519;28;20552;-54
2022/06/01 01:50:33;;;;;;;1.57;1.57;;;;;;;13.15;100.00;96517.88;5054768;28;20218;-54
2022/06/01 01:53:00;;;;;;;1.83;1.73;;;;;;;13.10;100.00;96529.00;5054543;28;20218;-54
2022/06/01 01:55:37;;;;;;;2.23;1.83;;;;;;;13.09;100.00;96511.41;5054478;28;20207;-55
2022/06/01 01:58:12;;;;;;;1.97;1.87;;;;;;;13.09;100.00;96523.81;5054162;28;20202;-54
2022/06/01 02:00:41;;;;;;;1.90;1.80;;;;;;;13.10;100.00;96518.38;5054470;28;20527;-55
2022/06/01 02:03:13;;;;;;;1.67;1.50;;;;;;;13.08;100.00;96522.97;5054516;28;20658;-55
2022/06/01 02:08:31;;;;;;;1.90;1.80;;;;;;;13.03;100.00;96524.47;5053305;28;20552;-55
2022/06/01 02:13:51;;;;;;;2.60;2.17;;;;;;;13.06;100.00;96524.13;5054470;28;20273;-55
2022/06/01 02:16:20;;;;;;;1.97;1.80;;;;;;;13.09;100.00;96523.81;5054433;28;20199;-55
2022/06/01 02:18:50;;;;;;;2.23;1.90;;;;;;;13.05;100.00;96522.47;5041684;28;20215;-54
2022/06/01 02:21:20;;;;;;;1.70;1.60;;;;;;;13.05;100.00;96511.84;5053842;28;20214;-53
2022/06/01 02:23:48;;;;;;;1.73;1.63;;;;;;;13.06;100.00;96521.47;5054341;28;20214;-54
2022/06/01 02:26:18;;;;;;;2.83;1.83;;;;;;;13.08;100.00;96506.22;5054054;28;20203;-54
2022/06/01 02:28:46;;;;;;;1.80;1.70;;;;;;;13.05;100.00;96509.19;5052869;28;20621;-55
2022/06/01 02:31:15;;;;;;;1.50;1.43;;;;;;;13.09;100.00;96515.84;5055154;28;20280;-55
2022/06/01 02:33:45;;;;;;;1.93;1.83;;;;;;;13.07;100.00;96502.75;5057991;28;20227;-56
2022/06/01 02:36:15;;;;;;;1.93;1.77;;;;;;;13.07;100.00;96501.91;5057674;28;20203;-55
2022/06/01 02:38:45;;;;;;;1.80;1.70;;;;;;;13.06;100.00;96510.88;5057270;28;20249;-54
2022/06/01 02:43:58;;;;;;;2.10;2.00;;;;;;;13.15;100.00;96501.94;5050670;28;20257;-53
2022/06/01 02:46:28;;;;;;;2.37;2.00;;;;;;;13.14;100.00;96502.97;5050788;28;20543;-55
2022/06/01 02:48:55;;;;;;;2.17;1.97;;;;;;;13.17;100.00;96499.97;5057154;28;20650;-54
2022/06/01 02:51:24;;;;;;;1.80;1.70;;;;;;;13.19;100.00;96503.28;5057244;28;20679;-53
2022/06/01 02:53:51;;;;;;;2.20;2.00;;;;;;;13.19;100.00;96497.97;5057600;28;20660;-55
2022/06/01 02:56:17;;;;;;;1.93;1.83;;;;;;;13.18;100.00;96499.00;5057295;28;20203;-55
2022/06/01 02:58:43;;;;;;;2.20;2.00;;;;;;;13.17;100.00;96502.63;5056826;28;20225;-54
2022/06/01 03:01:12;;;;;;;2.17;1.97;;;;;;;13.21;100.00;96503.97;5057348;28;20203;-55
2022/06/01 03:03:39;;;;;;;2.90;2.13;;;;;;;13.20;100.00;96499.66;5047127;28;20623;-54
2022/06/01 03:06:08;;;;;;;2.20;2.10;;;;;;;13.22;100.00;96502.97;5057195;28;20214;-54
2022/06/01 03:08:34;;;;;;;1.83;1.73;;;;;;;13.26;100.00;96493.69;5057791;28;20547;-54
2022/06/01 03:11:01;;;;;;;2.97;2.00;;;;;;;13.25;100.00;96497.34;5055168;28;20207;-54
2022/06/01 03:13:28;;;;;;;1.87;1.77;;;;;;;13.28;100.00;96516.44;5061638;28;20218;-54
2022/06/01 03:15:59;;;;;;;1.83;1.73;;;;;;;13.29;100.00;96519.91;5056859;28;20199;-53
2022/06/01 03:18:31;;;;;;;1.73;1.63;;;;;;;13.31;100.00;96513.47;5064242;28;20234;-54
2022/06/01 03:20:57;;;;;;;1.73;1.63;;;;;;;13.30;100.00;96517.09;5063849;28;20189;-54
2022/06/01 03:23:26;;;;;;;2.10;1.80;;;;;;;13.35;100.00;96516.63;5078509;28;20588;-55
2022/06/01 03:25:53;;;;;;;1.53;1.43;;;;;;;13.36;100.00;96515.59;5061457;28;20294;-53
2022/06/01 03:28:20;;;;;;;2.70;1.90;;;;;;;13.39;100.00;96510.00;5055077;28;20234;-55
2022/06/01 03:30:47;;;;;;;2.10;2.00;;;;;;;13.40;100.00;96515.13;5056887;28;20239;-55
2022/06/01 03:33:14;;;;;;;2.00;1.90;;;;;;;13.45;100.00;96507.50;5057017;28;20369;-53
2022/06/01 03:35:42;;;;;;;2.07;1.97;;;;;;;13.49;100.00;96510.66;5055631;28;20203;-55
2022/06/01 03:38:09;;;;;;;1.80;1.70;;;;;;;13.51;100.00;96523.78;5056989;28;20684;-54
2022/06/01 03:40:44;;;;;;;2.17;1.97;;;;;;;13.52;100.00;96526.28;5055552;28;20666;-53
2022/06/01 03:43:14;;;;;;;2.10;2.00;;;;;;;13.49;100.00;96521.28;5056156;28;20195;-54
2022/06/01 03:45:55;;;;;;;2.00;1.90;;;;;;;13.52;100.00;96534.25;5057203;28;20210;-53
2022/06/01 03:48:23;;;;;;;1.90;1.80;;;;;;;13.49;100.00;96526.59;5056433;28;20247;-55
2022/06/01 03:50:54;;;;;;;3.53;1.87;;;;;;;13.52;100.00;96525.44;5056800;28;20218;-54
2022/06/01 03:53:32;;;;;;;2.07;1.97;;;;;;;13.54;100.00;96518.13;5056684;28;20212;-54
2022/06/01 03:55:58;;;;;;;2.00;1.70;;;;;;;13.57;100.00;96523.94;5056416;28;20238;-54
2022/06/01 03:58:27;;;;;;;2.67;2.00;;;;;;;13.60;100.00;96530.78;5042975;28;20592;-55
2022/06/01 04:00:54;;;;;;;2.10;1.93;;;;;;;13.67;100.00;96529.94;5053301;28;20230;-54
2022/06/01 04:03:21;;;;;;;1.80;1.70;;;;;;;13.64;100.00;96519.63;5056197;28;20226;-55
2022/06/01 04:05:49;;;;;;;2.17;2.07;;;;;;;13.64;100.00;96524.13;5056186;28;20214;-54
2022/06/01 04:08:20;;;;;;;2.03;1.93;;;;;;;13.65;100.00;96529.28;5056012;28;20229;-54
2022/06/01 04:10:47;;;;;;;1.80;1.70;;;;;;;13.66;100.00;96535.41;5055069;28;20286;-54
2022/06/01 04:13:14;;;;;;;2.10;2.00;;;;;;;13.63;100.00;96533.09;5056216;28;20231;-55
2022/06/01 04:15:43;;;;;;;2.00;1.90;;;;;;;13.64;100.00;96540.88;5055678;28;20214;-54
2022/06/01 04:18:13;;;;;;;1.87;1.60;;;;;;;13.65;100.00;96542.56;5055190;28;20214;-54
2022/06/01 04:20:40;;;;;;;2.23;2.00;;;;;;;13.69;100.00;96546.56;5055439;28;20210;-53
2022/06/01 04:23:06;;;;;;;1.80;1.70;;;;;;;13.80;100.00;96535.59;5048534;28;20200;-55
2022/06/01 04:25:35;;;;;;;2.50;1.90;;;;;;;13.97;100.00;96547.06;5050618;28;20218;-54
2022/06/01 04:28:01;;;;;;;2.23;2.00;;;;;;;14.17;100.00;96548.38;5055710;28;20211;-55
2022/06/01 04:30:28;;;;;;;2.77;2.00;;;;;;;14.35;100.00;96540.25;5054569;28;20227;-55
2022/06/01 04:32:57;;;;;;;3.63;2.00;;;;;;;14.53;100.00;96543.53;5055740;28;20540;-55
2022/06/01 04:35:27;;;;;;;2.43;2.20;;;;;;;14.56;100.00;96543.19;5055377;28;20313;-55
2022/06/01 04:38:12;;;;;;;2.10;2.00;;;;;;;14.59;100.00;96534.91;5055514;28;20199;-54
2022/06/01 04:40:40;;;;;;;2.50;2.30;;;;;;;14.56;100.00;96537.88;5054912;28;20586;-54
2022/06/01 04:43:09;;;;;;;2.80;2.23;;;;;;;14.55;100.00;96536.22;5054505;28;20241;-54
2022/06/01 04:45:36;;;;;;;2.60;2.40;;;;;;;14.55;100.00;96536.22;5054862;28;20211;-55
2022/06/01 04:48:03;;;;;;;2.40;2.30;;;;;;;14.62;100.00;96547.84;5055393;28;20540;-54
2022/06/01 04:50:31;;;;;;;2.77;2.53;;;;;;;14.59;100.00;96550.88;5055294;28;20659;-54
2022/06/01 04:52:58;;;;;;;2.50;2.33;;;;;;;14.60;100.00;96539.19;5054512;28;20234;-54
2022/06/01 04:55:26;;;;;;;2.50;2.23;;;;;;;14.65;100.00;96531.53;5053008;28;21402;-54
2022/06/01 04:57:55;;;;;;;2.43;2.10;;;;;;;14.65;100.00;96542.19;5058605;28;20213;-55
2022/06/01 05:00:23;;;;;;;2.60;2.40;;;;;;;14.57;100.00;96546.69;5055414;28;20199;-52
2022/06/01 05:02:49;;;;;;;2.73;2.53;;;;;;;14.60;100.00;96549.84;5054597;28;20218;-55
2022/06/01 05:05:15;;;;;;;2.17;2.07;;;;;;;14.84;100.00;96544.44;5054519;28;20214;-53
2022/06/01 05:07:42;;;;;;;2.20;2.10;;;;;;;15.09;100.00;96539.84;5054966;28;20511;-54
2022/06/01 05:10:12;;;;;;;2.40;2.20;;;;;;;15.31;100.00;96536.41;5048608;28;20215;-53
2022/06/01 05:12:39;;;;;;;3.23;2.90;;;;;;;15.60;98.92;96543.78;5049028;28;20230;-54
2022/06/01 05:15:09;;;;;;;2.60;2.50;;;;;;;15.90;98.27;96539.41;5054213;28;20214;-53
2022/06/01 05:17:35;;;;;;;3.40;2.80;;;;;;;16.19;96.38;96528.00;5051975;28;20234;-54
2022/06/01 05:20:06;;;;;;;2.50;2.30;;;;;;;16.45;93.73;96517.72;5044362;28;20231;-54
2022/06/01 05:22:33;;;;;;;2.43;2.27;;;;;;;16.67;93.10;96527.53;5055132;28;20217;-55
2022/06/01 05:25:00;;;;;;;3.90;2.42;;;;;;;16.93;88.80;96527.88;5050247;28;20638;-54
2022/06/01 05:27:30;;;;;;;5.10;2.72;;;;;;;17.25;88.88;96526.66;5053060;28;20207;-53
2022/06/01 05:29:57;;;;;;;2.67;2.47;;;;;;;17.61;87.37;96526.69;5061743;28;20203;-54
2022/06/01 05:32:27;;;;;;;2.95;2.55;;;;;;;17.61;86.29;96521.34;5054083;28;20211;-54
2022/06/01 05:34:55;;;;;;;2.90;2.50;;;;;;;17.36;87.61;96518.16;5054610;28;20650;-55
2022/06/01 05:37:23;;;;;;;2.50;2.30;;;;;;;17.49;86.92;96533.53;5055389;28;20549;-54
2022/06/01 05:39:50;;;;;;;2.20;2.10;;;;;;;17.51;85.42;96542.19;5063177;28;20215;-54
2022/06/01 05:42:16;;;;;;;2.53;2.33;;;;;;;17.94;85.17;96537.72;5074969;28;20214;-54
2022/06/01 05:44:45;;;;;;;3.17;2.50;;;;;;;18.08;83.52;96530.66;5076611;28;20199;-55
2022/06/01 05:47:11;;;;;;;4.03;2.00;;;;;;;18.02;82.42;96526.06;5064980;28;20203;-55
2022/06/01 05:49:39;;;;;;;1.88;1.67;;;;;;;17.97;82.25;96528.50;5059845;28;20238;-53
2022/06/01 05:52:07;;;;;;;3.60;1.92;;;;;;;18.13;81.85;96530.91;5058848;28;20214;-55
2022/06/01 05:54:34;;;;;;;3.65;1.67;;;;;;;18.31;79.79;96523.25;5062717;28;20210;-54
2022/06/01 05:57:05;;;;;;;1.90;1.80;;;;;;;18.11;79.29;96523.06;5054769;28;20542;-54
2022/06/01 05:59:34;;;;;;;1.70;1.60;;;;;;;18.38;79.69;96519.59;5048559;28;20214;-54
2022/06/01 06:02:02;;;;;;;3.00;1.40;;;;;;;18.38;79.59;96526.81;5054305;28;20218;-55
2022/06/01 06:04:29;;;;;;;1.90;1.80;;;;;;;18.21;79.90;96538.81;5052941;28;20210;-53
2022/06/01 06:06:57;;;;;;;1.95;1.80;;;;;;;17.97;79.91;96529.31;5058101;28;20207;-55
2022/06/01 06:09:24;;;;;;;1.70;1.60;;;;;;;18.12;81.21;96529.25;5058034;28;20203;-54
2022/06/01 06:11:55;;;;;;;2.50;2.30;;;;;;;18.14;82.53;96533.38;5056886;28;20200;-55
2022/06/01 06:14:24;;;;;;;1.95;1.80;;;;;;;18.27;81.80;96538.88;5057747;28;20738;-54
2022/06/01 06:16:51;;;;;;;2.70;1.75;;;;;;;18.37;80.71;96538.53;5058300;28;20708;-55
2022/06/01 06:19:20;;;;;;;3.35;2.00;;;;;;;18.38;81.06;96543.72;5057722;28;20207;-54
2022/06/01 06:21:48;;;;;;;2.45;1.90;;;;;;;18.40;80.68;96538.97;5057897;28;20207;-54
2022/06/01 06:24:18;;;;;;;3.58;2.10;;;;;;;18.35;80.99;96541.38;5057906;28;20210;-53
2022/06/01 06:26:48;;;;;;;3.75;2.00;;;;;;;18.46;81.36;96531.19;5058243;28;20218;-54
2022/06/01 06:29:16;;;;;;;2.30;2.20;;;;;;;18.59;80.63;96531.31;5057442;28;20261;-54
2022/06/01 06:31:44;;;;;;;2.30;2.10;;;;;;;18.73;80.49;96536.56;5057031;28;20262;-53
2022/06/01 06:34:11;;;;;;;2.55;2.22;;;;;;;18.71;81.31;96538.59;5056582;28;20222;-54
2022/06/01 06:36:40;;;;;;;2.13;1.90;;;;;;;18.64;79.77;96534.22;5057890;28;20545;-55
2022/06/01 06:39:07;;;;;;;1.95;1.80;;;;;;;18.72;79.38;96531.41;5057082;28;20202;-54
2022/06/01 06:41:35;;;;;;;2.72;2.00;;;;;;;18.73;80.64;96541.09;5056890;28;20210;-55
2022/06/01 06:44:02;;;;;;;1.88;1.77;;;;;;;18.62;80.02;96537.09;5044787;28;20199;-54
2022/06/01 06:46:29;;;;;;;2.55;2.35;;;;;;;18.60;78.02;96538.34;5057272;28;20648;-54
2022/06/01 06:48:56;;;;;;;2.08;1.92;;;;;;;18.66;79.26;96538.38;5057684;28;20530;-55
2022/06/01 06:51:25;;;;;;;1.85;1.73;;;;;;;18.75;79.43;96547.91;5057071;28;20214;-55
2022/06/01 06:53:51;;;;;;;1.70;1.60;;;;;;;18.80;79.97;96540.13;5057001;28;20227;-54
2022/06/01 06:56:20;;;;;;;2.63;1.70;;;;;;;18.84;75.67;96532.50;5057073;28;20298;-55
2022/06/01 06:58:48;;;;;;;1.95;1.58;;;;;;;18.84;78.45;96537.88;5063185;28;20199;-55
2022/06/01 07:01:16;;;;;;;1.50;1.40;;;;;;;18.72;75.62;96526.03;5057177;28;20531;-54
2022/06/01 07:03:43;;;;;;;4.35;1.45;;;;;;;19.00;76.64;96523.31;5056144;28;20532;-53
2022/06/01 07:06:12;;;;;;;2.83;1.77;;;;;;;19.27;75.29;96528.59;5056830;28;20203;-54
2022/06/01 07:08:39;;;;;;;1.70;1.60;;;;;;;19.36;74.05;96530.09;5057167;28;20203;-54
2022/06/01 07:11:08;;;;;;;1.65;1.58;;;;;;;19.44;73.99;96537.19;5057038;28;20536;-54
2022/06/01 07:13:35;;;;;;;1.55;1.45;;;;;;;19.53;75.02;96540.50;5056811;28;20701;-54
2022/06/01 07:16:09;;;;;;;2.03;1.30;;;;;;;19.59;72.99;96535.13;5056258;28;20207;-53
2022/06/01 07:18:38;;;;;;;1.65;1.55;;;;;;;19.79;72.83;96541.41;5056733;28;20619;-54
2022/06/01 07:21:06;;;;;;;1.23;1.13;;;;;;;19.96;69.29;96539.16;5056478;28;20211;-55
2022/06/01 07:23:33;;;;;;;1.50;1.20;;;;;;;19.99;66.67;96538.75;5056564;28;20199;-54
2022/06/01 07:25:59;;;;;;;2.20;1.25;;;;;;;19.84;68.50;96538.94;5055729;28;20199;-55
2022/06/01 07:28:26;;;;;;;1.30;1.20;;;;;;;19.75;71.08;96529.41;5056787;28;20526;-54
2022/06/01 07:30:56;;;;;;;1.80;1.30;;;;;;;20.05;69.37;96523.72;5055389;28;20314;-54
2022/06/01 07:33:28;;;;;;;1.40;1.30;;;;;;;20.34;68.42;96528.69;5056799;28;20211;-52
2022/06/01 07:35:55;;;;;;;1.77;1.17;;;;;;;20.59;67.93;96532.41;5043728;28;20195;-55
2022/06/01 07:43:56;;;;;;;1.38;1.35;;;;;;;20.67;62.95;96528.69;5056571;28;20657;-54
2022/06/01 07:46:24;;;;;;;1.15;1.15;;;;;;;20.53;64.58;96530.56;5056663;28;20199;-54
2022/06/01 07:48:53;;;;;;;1.15;1.15;;;;;;;20.60;63.36;96533.22;5056544;28;20226;-53
2022/06/01 07:51:20;;;;;;;2.20;1.35;;;;;;;20.52;62.34;96525.38;5056300;28;20241;-55
2022/06/01 07:53:47;;;;;;;1.50;1.40;;;;;;;20.52;64.91;96531.56;5056475;28;20327;-55
2022/06/01 07:56:18;;;;;;;1.45;1.40;;;;;;;20.59;63.69;96526.19;5055110;28;20631;-54
2022/06/01 07:58:45;;;;;;;1.38;1.27;;;;;;;20.87;62.33;96531.34;5056603;28;20203;-53
2022/06/01 08:01:12;;;;;;;1.33;1.10;;;;;;;20.94;62.04;96522.22;5070432;28;20226;-53
2022/06/01 08:03:39;;;;;;;1.15;1.00;;;;;;;20.95;62.18;96523.03;5073256;28;20199;-54
2022/06/01 08:06:08;;;;;;;1.52;1.30;;;;;;;20.88;62.08;96515.00;5067933;28;20199;-55
2022/06/01 08:08:35;;;;;;;1.40;1.20;;;;;;;20.96;62.29;96516.63;5058181;28;20203;-53
2022/06/01 08:11:04;;;;;;;1.45;1.15;;;;;;;20.97;64.22;96524.50;5057124;28;20211;-54
2022/06/01 08:13:30;;;;;;;4.63;1.73;;;;;;;21.13;62.48;96528.63;5055048;28;20223;-54
2022/06/01 08:15:56;;;;;;;1.70;1.60;;;;;;;21.12;62.80;96532.31;5056212;28;20214;-55
2022/06/01 08:18:24;;;;;;;2.20;2.10;;;;;;;21.05;62.64;96532.31;5055779;28;20214;-55
2022/06/01 08:20:53;;;;;;;1.45;1.35;;;;;;;21.00;62.01;96534.00;5055633;28;20222;-53
2022/06/01 08:23:22;;;;;;;1.58;1.42;;;;;;;21.03;62.04;96542.47;5055202;28;20643;-53
2022/06/01 08:25:51;;;;;;;2.33;1.40;;;;;;;21.19;64.20;96538.50;5055811;28;20211;-55
2022/06/01 08:28:18;;;;;;;2.58;1.48;;;;;;;21.10;63.68;96529.00;5054432;28;20210;-54
2022/06/01 08:30:49;;;;;;;2.70;1.40;;;;;;;21.32;64.40;96535.81;5054349;28;20672;-54
2022/06/01 08:33:16;;;;;;;1.70;1.52;;;;;;;21.39;62.53;96533.91;5055644;28;20222;-54
2022/06/01 08:35:45;;;;;;;1.50;1.40;;;;;;;21.50;62.63;96535.09;5055601;28;20206;-55
2022/06/01 08:38:11;;;;;;;1.88;1.65;;;;;;;21.65;63.46;96541.84;5054820;28;20286;-54
2022/06/01 08:40:47;;;;;;;1.92;1.73;;;;;;;21.75;62.03;96542.22;5054749;28;20206;-55
2022/06/01 08:43:16;;;;;;;1.75;1.40;;;;;;;21.92;61.75;96549.81;5054899;28;20198;-54
2022/06/01 08:45:46;;;;;;;1.35;1.25;;;;;;;21.82;60.50;96545.69;5055615;28;20363;-55
2022/06/01 08:48:18;;;;;;;1.80;1.70;;;;;;;21.77;60.81;96548.22;5056098;28;20207;-54
2022/06/01 08:50:47;;;;;;;2.13;1.55;;;;;;;21.91;60.55;96548.16;5056185;28;20202;-55
2022/06/01 08:53:13;;;;;;;1.80;1.40;;;;;;;22.10;58.94;96552.63;5056496;28;20227;-54
2022/06/01 08:55:46;;;;;;;2.05;1.80;;;;;;;22.45;58.29;96550.28;5057703;28;20211;-54
2022/06/01 08:58:15;;;;;;;2.45;1.45;;;;;;;22.62;57.98;96546.00;5058065;28;20230;-55
2022/06/01 09:00:47;;;;;;;1.95;1.80;;;;;;;22.40;57.79;96547.41;5072851;28;20199;-54
2022/06/01 09:03:20;;;;;;;4.03;1.60;;;;;;;22.63;58.08;96542.25;5077275;28;20202;-54
2022/06/01 09:05:49;;;;;;;1.90;1.80;;;;;;;22.55;59.25;96540.66;5077474;28;20209;-55
2022/06/01 09:08:26;;;;;;;2.25;1.50;;;;;;;23.07;56.91;96535.84;5063667;28;20187;-54
2022/06/01 09:11:02;;;;;;;1.80;1.70;;;;;;;23.42;55.03;96536.13;5076393;28;20195;-55
2022/06/01 09:13:37;;;;;;;2.20;2.00;;;;;;;23.52;54.05;96537.25;5074563;28;20206;-54
2022/06/01 09:16:05;;;;;;;1.75;1.65;;;;;;;23.69;54.69;96556.34;5061133;28;20197;-55
2022/06/01 09:18:42;;;;;;;2.03;1.80;;;;;;;23.42;50.47;96542.31;5060705;28;20204;-54
2022/06/01 09:24:07;;;;;;;2.33;1.90;;;;;;;23.15;52.62;96546.34;5054043;28;20202;-55
2022/06/01 09:26:38;;;;;;;1.67;1.58;;;;;;;23.19;51.24;96539.47;5054110;28;20540;-54
2022/06/01 09:29:04;;;;;;;2.13;1.92;;;;;;;23.13;50.49;96543.84;5054106;28;20237;-54
2022/06/01 09:31:37;;;;;;;1.70;1.60;;;;;;;23.54;52.54;96543.22;5054393;28;20235;-54
2022/06/01 09:34:16;;;;;;;1.88;1.73;;;;;;;23.39;51.09;96542.75;5054580;28;20242;-54
2022/06/01 09:37:08;;;;;;;2.40;1.63;;;;;;;23.44;50.88;96539.41;5055353;28;20203;-55
2022/06/01 09:39:37;;;;;;;1.75;1.52;;;;;;;23.56;51.82;96543.81;5044537;28;20207;-54
2022/06/01 09:42:20;;;;;;;2.08;1.50;;;;;;;23.48;52.45;96540.59;5059054;28;20206;-54
2022/06/01 09:44:49;;;;;;;4.53;2.00;;;;;;;23.20;53.93;96538.41;5058987;28;20234;-53
2022/06/01 09:47:37;;;;;;;2.33;2.15;;;;;;;22.89;52.14;96533.13;5045319;28;20218;-53
2022/06/01 09:50:07;;;;;;;1.73;1.63;;;;;;;22.93;51.71;96537.03;5058805;28;20206;-54
2022/06/01 09:52:37;;;;;;;4.00;1.95;;;;;;;22.86;53.32;96541.66;5058960;28;20210;-54
2022/06/01 09:55:15;;;;;;;2.58;1.75;;;;;;;22.69;54.89;96536.84;5058712;28;20607;-56
2022/06/01 09:57:44;;;;;;;4.63;2.28;;;;;;;22.65;52.56;96534.78;5064237;28;20263;-55
2022/06/01 10:06:09;;;;;;;1.77;1.60;;;;;;;22.40;52.08;96548.25;5058203;28;20198;-55
2022/06/01 10:08:42;;;;;;;1.50;1.40;;;;;;;22.29;50.22;96552.47;5046595;28;20715;-54
2022/06/01 10:11:22;;;;;;;4.43;1.90;;;;;;;22.30;47.67;96556.81;5058093;28;20238;-55
2022/06/01 10:14:00;;;;;;;2.55;1.80;;;;;;;22.07;49.55;96558.44;5058422;28;20222;-55
2022/06/01 10:16:35;;;;;;;1.90;1.73;;;;;;;21.84;50.68;96549.00;5062031;28;20199;-54
2022/06/01 10:19:03;;;;;;;2.15;1.80;;;;;;;21.79;51.31;96551.50;5079546;28;20219;-53
2022/06/01 10:21:42;;;;;;;4.32;1.67;;;;;;;21.73;51.79;96549.69;5080832;28;20210;-55
2022/06/01 10:24:11;;;;;;;1.80;1.60;;;;;;;21.73;52.80;96546.16;5074639;28;20249;-54
2022/06/01 10:26:39;;;;;;;1.95;1.60;;;;;;;21.63;52.94;96545.81;5059182;28;20647;-53
2022/06/01 10:29:12;;;;;;;2.65;1.60;;;;;;;21.55;53.13;96544.19;5058610;28;20230;-54
2022/06/01 10:31:43;;;;;;;3.05;2.60;;;;;;;21.56;54.77;96535.06;5058066;28;20245;-54
2022/06/01 10:34:15;;;;;;;1.95;1.75;;;;;;;21.51;53.84;96551.03;5057748;28;20671;-54
2022/06/01 10:36:47;;;;;;;3.28;1.80;;;;;;;21.55;52.63;96544.19;5058418;28;20206;-54
2022/06/01 10:39:19;;;;;;;2.10;2.00;;;;;;;21.45;52.55;96538.44;5045012;28;20199;-53
2022/06/01 10:41:48;;;;;;;3.33;1.85;;;;;;;21.42;53.83;96533.47;5058325;28;20202;-55
2022/06/01 10:44:21;;;;;;;2.50;2.30;;;;;;;21.41;53.56;96534.50;5058222;28;20679;-54
2022/06/01 10:46:52;;;;;;;2.45;2.28;;;;;;;21.33;55.18;96545.50;5057849;28;20199;-54
2022/06/01 10:49:35;;;;;;;3.58;3.00;;;;;;;21.31;54.27;96544.91;5066038;28;20642;-53
2022/06/01 10:52:09;;;;;;;2.45;2.25;;;;;;;21.28;55.30;96556.09;5062457;28;20203;-54
2022/06/01 10:54:41;;;;;;;2.30;2.00;;;;;;;21.26;57.40;96548.22;5062091;28;20237;-53
2022/06/01 10:57:10;;;;;;;3.25;2.03;;;;;;;21.32;58.96;96547.38;5051357;28;20227;-53
2022/06/01 10:59:39;;;;;;;2.40;1.70;;;;;;;21.36;57.77;96536.19;5073986;28;20211;-53
2022/06/01 11:02:18;;;;;;;2.30;2.10;;;;;;;21.39;54.33;96539.28;5057274;28;20195;-53
2022/06/01 11:05:09;;;;;;;5.32;3.85;;;;;;;21.53;56.65;96543.59;5057194;28;20222;-54
2022/06/01 11:07:44;;;;;;;3.97;2.13;;;;;;;21.60;55.49;96539.00;5050538;28;20207;-53
2022/06/01 11:10:16;;;;;;;4.50;2.30;;;;;;;21.71;55.00;96538.31;5045122;28;20195;-53
2022/06/01 11:12:55;;;;;;;2.70;2.10;;;;;;;21.84;56.12;96535.53;5057480;28;20238;-54
2022/06/01 11:15:27;;;;;;;2.40;2.20;;;;;;;22.10;55.17;96531.06;5057020;28;20276;-53
2022/06/01 11:18:01;;;;;;;2.15;2.05;;;;;;;22.10;54.61;96531.91;5056506;28;20188;-54
2022/06/01 11:21:05;;;;;;;2.40;2.20;;;;;;;22.16;54.69;96530.19;5057044;28;20218;-53
2022/06/01 11:23:45;;;;;;;2.33;2.10;;;;;;;22.30;54.58;96531.75;5048874;28;20206;-54
2022/06/01 11:26:19;;;;;;;2.78;1.83;;;;;;;22.32;54.87;96546.63;5054492;28;20263;-54
2022/06/01 11:29:03;;;;;;;2.90;2.00;;;;;;;22.36;53.66;96541.63;5056230;28;20206;-53
2022/06/01 11:31:32;;;;;;;4.45;2.35;;;;;;;22.23;51.18;96544.44;5056592;28;20248;-52
2022/06/01 11:34:05;;;;;;;5.53;2.28;;;;;;;22.03;52.35;96530.28;5056829;28;20682;-52
2022/06/01 11:36:36;;;;;;;2.53;1.92;;;;;;;21.93;51.46;96540.72;5056985;28;20217;-55
2022/06/01 11:39:12;;;;;;;2.17;1.98;;;;;;;21.78;51.53;96532.91;5056618;28;20207;-54
2022/06/01 11:41:41;;;;;;;2.22;1.88;;;;;;;21.56;54.38;96540.47;5056801;28;20206;-53
2022/06/01 11:44:14;;;;;;;2.20;2.00;;;;;;;21.45;53.37;96543.81;5056617;28;20210;-53
2022/06/01 11:46:52;;;;;;;2.10;1.90;;;;;;;21.40;53.19;96548.19;5056461;28;20507;-53
2022/06/01 11:49:27;;;;;;;2.17;1.98;;;;;;;21.14;55.44;96541.84;5056850;28;20575;-53
2022/06/01 11:51:57;;;;;;;1.77;1.67;;;;;;;21.05;56.07;96555.69;5056645;28;20493;-54
2022/06/01 11:54:34;;;;;;;2.75;2.10;;;;;;;20.87;56.88;96550.97;5056361;28;20290;-53
2022/06/01 11:57:03;;;;;;;3.92;2.28;;;;;;;20.74;58.27;96545.63;5044375;28;20205;-52
2022/06/01 11:59:37;;;;;;;2.15;2.05;;;;;;;20.60;58.83;96544.81;5051261;28;20222;-53
2022/06/01 12:02:42;;;;;;;3.38;2.53;;;;;;;20.36;66.80;96553.50;5055627;28;20194;-52
2022/06/01 12:05:12;;;;;;;5.93;3.08;;;;;;;20.35;64.40;96549.16;5044278;28;20219;-54
2022/06/01 12:07:43;;;;;;;8.85;7.25;;;;;;;20.21;67.80;96550.16;5056176;28;20273;-53